Time;durP1;ratioP1;P1;durP2;ratioP2;P2;SDS_P1;SDS_P2;PMS_P1;PMS_P2;Temp;Humidity;BMP_temperature;BMP_pressure;BME280_temperature;BME280_humidity;BME280_pressure;Samples;Min_cycle;Max_cycle;Signal;HPM_P1;HPM_P2
2021/01/31 00:00:48;;;;;;;31.40;15.67;;;;;;;-4.09;78.73;98784.17;124879;1105;104101;-82
2021/01/31 00:03:24;;;;;;;34.17;17.47;;;;;;;-4.09;78.45;98776.54;124828;1106;104123;-81
2021/01/31 00:05:54;;;;;;;39.65;18.35;;;;;;;-4.10;78.64;98791.81;124847;1102;104127;-82
2021/01/31 00:08:24;;;;;;;35.30;16.77;;;;;;;-4.09;78.48;98796.06;124863;1106;104092;-82
2021/01/31 00:10:53;;;;;;;36.33;16.73;;;;;;;-4.12;78.17;98793.51;124829;1103;104208;-82
2021/01/31 00:13:21;;;;;;;38.10;17.23;;;;;;;-4.16;78.44;98799.41;124868;1106;104210;-81
2021/01/31 00:15:50;;;;;;;33.23;16.73;;;;;;;-4.23;78.18;98800.24;124827;1102;104191;-81
2021/01/31 00:18:21;;;;;;;39.33;15.80;;;;;;;-4.31;78.11;98803.63;124881;1103;104233;-81
2021/01/31 00:20:52;;;;;;;34.90;16.73;;;;;;;-4.34;78.70;98803.59;124875;1103;104226;-81
2021/01/31 00:23:20;;;;;;;33.27;16.17;;;;;;;-4.39;78.73;98815.45;124851;1105;104353;-82
2021/01/31 00:25:48;;;;;;;31.90;16.47;;;;;;;-4.41;78.76;98823.92;124877;1105;102773;-81
2021/01/31 00:28:17;;;;;;;36.00;17.40;;;;;;;-4.39;78.95;98822.23;124851;1105;102295;-81
2021/01/31 00:30:46;;;;;;;30.87;15.80;;;;;;;-4.40;78.96;98829.02;124924;1105;104189;-81
2021/01/31 00:33:17;;;;;;;30.43;15.93;;;;;;;-4.38;78.93;98826.48;124860;1105;104198;-81
2021/01/31 00:35:45;;;;;;;34.07;17.37;;;;;;;-4.39;78.60;98828.17;124827;1105;104156;-81
2021/01/31 00:38:17;;;;;;;35.17;16.37;;;;;;;-4.35;79.03;98834.13;124849;1105;104117;-81
2021/01/31 00:40:45;;;;;;;32.00;15.37;;;;;;;-4.35;79.15;98831.58;124862;1103;104143;-81
2021/01/31 00:43:13;;;;;;;33.13;15.43;;;;;;;-4.30;79.17;98830.77;124869;1105;104198;-81
2021/01/31 00:45:41;;;;;;;28.17;13.87;;;;;;;-4.26;78.71;98827.39;124877;1105;102434;-81
2021/01/31 00:48:09;;;;;;;31.40;14.73;;;;;;;-4.25;78.96;98828.24;124803;1106;104360;-81
2021/01/31 00:50:38;;;;;;;34.93;15.73;;;;;;;-4.31;78.26;98834.16;124846;1103;104296;-81
2021/01/31 00:53:11;;;;;;;28.90;14.70;;;;;;;-4.32;78.15;98827.34;124905;1105;104197;-81
2021/01/31 00:55:40;;;;;;;29.10;15.10;;;;;;;-4.29;77.85;98831.62;124861;1106;104204;-81
2021/01/31 00:58:08;;;;;;;32.40;15.43;;;;;;;-4.28;78.72;98844.36;124855;1103;104117;-81
2021/01/31 01:00:41;;;;;;;29.53;15.13;;;;;;;-4.24;78.35;98836.73;124801;1105;104312;-81
2021/01/31 01:03:12;;;;;;;26.83;14.07;;;;;;;-4.23;78.56;98846.06;124817;1105;102812;-81
2021/01/31 01:05:55;;;;;;;25.57;14.83;;;;;;;-4.26;78.42;98852.84;124843;1105;104252;-81
2021/01/31 01:08:22;;;;;;;34.23;16.37;;;;;;;-4.28;78.08;98854.54;124870;1102;104205;-82
2021/01/31 01:10:49;;;;;;;29.13;14.63;;;;;;;-4.28;78.29;98862.17;124847;1105;103935;-81
2021/01/31 01:13:16;;;;;;;33.30;15.47;;;;;;;-4.32;77.65;98857.89;124823;1103;103983;-81
2021/01/31 01:15:45;;;;;;;29.90;15.50;;;;;;;-4.33;77.80;98858.73;124850;1105;104759;-81
2021/01/31 01:18:12;;;;;;;27.67;14.70;;;;;;;-4.29;78.13;98878.30;124800;1102;104213;-81
2021/01/31 01:20:39;;;;;;;29.90;15.03;;;;;;;-4.28;77.95;98872.36;124830;1105;104134;-81
2021/01/31 01:23:06;;;;;;;26.07;13.17;;;;;;;-4.24;77.90;98872.37;124800;1105;102830;-82
2021/01/31 01:25:33;;;;;;;30.87;15.33;;;;;;;-4.30;78.24;98868.95;124771;1105;104210;-82
2021/01/31 01:28:00;;;;;;;28.37;13.13;;;;;;;-4.30;78.27;98875.74;124935;1103;104159;-82
2021/01/31 01:30:30;;;;;;;31.93;14.63;;;;;;;-4.34;78.20;98869.76;124885;1105;104143;-81
2021/01/31 01:33:00;;;;;;;28.23;13.47;;;;;;;-4.33;78.55;98871.45;124838;1102;104216;-81
2021/01/31 01:35:28;;;;;;;28.70;14.80;;;;;;;-4.33;77.82;98870.61;124878;1105;104153;-82
2021/01/31 01:37:56;;;;;;;26.70;13.57;;;;;;;-4.36;77.86;98863.81;124881;1105;102080;-82
2021/01/31 01:40:29;;;;;;;26.33;12.90;;;;;;;-4.39;77.27;98862.95;124835;1105;104235;-81
2021/01/31 01:42:57;;;;;;;24.63;13.43;;;;;;;-4.42;77.76;98873.12;124909;1105;104631;-81
2021/01/31 01:45:25;;;;;;;25.17;12.63;;;;;;;-4.48;77.63;98863.77;124835;1106;104130;-82
2021/01/31 01:47:57;;;;;;;28.87;14.67;;;;;;;-4.53;77.82;98874.73;124845;1105;104281;-82
2021/01/31 01:50:33;;;;;;;26.13;13.53;;;;;;;-4.57;77.62;98862.00;124896;1102;104021;-82
2021/01/31 01:53:01;;;;;;;27.00;14.03;;;;;;;-4.59;77.57;98867.93;124872;1102;104166;-82
2021/01/31 01:55:33;;;;;;;28.07;14.03;;;;;;;-4.60;77.73;98866.23;124862;1106;103341;-82
2021/01/31 01:58:21;;;;;;;28.13;14.60;;;;;;;-4.60;78.02;98866.23;124840;1104;104104;-81
2021/01/31 02:00:49;;;;;;;29.10;14.57;;;;;;;-4.64;77.80;98867.91;124873;1106;104156;-82
2021/01/31 02:03:24;;;;;;;28.73;14.47;;;;;;;-4.65;78.23;98876.38;124912;1105;104184;-82
2021/01/31 02:05:58;;;;;;;31.00;16.33;;;;;;;-4.66;77.90;98874.69;124916;1102;102808;-82
2021/01/31 02:08:25;;;;;;;32.43;15.50;;;;;;;-4.69;77.91;98882.27;124871;1105;102250;-82
2021/01/31 02:10:52;;;;;;;32.03;16.17;;;;;;;-4.70;78.27;98879.72;124850;1105;102832;-81
2021/01/31 02:13:20;;;;;;;34.20;16.10;;;;;;;-4.70;78.42;98882.26;124823;1106;104203;-81
2021/01/31 02:15:48;;;;;;;31.93;16.10;;;;;;;-4.65;78.45;98890.80;124846;1105;104762;-82
2021/01/31 02:18:33;;;;;;;31.63;14.90;;;;;;;-4.70;78.26;98889.89;124876;1103;104171;-82
2021/01/31 02:21:36;;;;;;;34.17;16.63;;;;;;;-4.72;78.15;98886.48;124856;1105;104128;-82
2021/01/31 02:24:35;;;;;;;31.23;16.60;;;;;;;-4.72;78.17;98897.52;124829;1103;104216;-82
2021/01/31 02:27:22;;;;;;;30.90;15.37;;;;;;;-4.74;78.16;98883.09;124858;1105;104120;-81
2021/01/31 02:30:28;;;;;;;30.17;15.40;;;;;;;-4.77;77.98;98883.92;124834;1106;104236;-82
2021/01/31 02:33:14;;;;;;;33.70;15.80;;;;;;;-4.77;78.15;98877.98;124851;1103;104041;-82
2021/01/31 02:35:45;;;;;;;31.40;15.87;;;;;;;-4.79;78.39;98882.21;124860;1105;104140;-82
2021/01/31 02:38:25;;;;;;;28.00;14.50;;;;;;;-4.77;78.37;98888.16;124851;1105;104149;-81
2021/01/31 02:40:59;;;;;;;29.37;15.07;;;;;;;-4.78;78.53;98891.54;124855;1105;104185;-81
2021/01/31 02:43:42;;;;;;;33.23;15.97;;;;;;;-4.77;78.78;98893.24;124853;1105;104174;-82
2021/01/31 02:46:20;;;;;;;33.00;15.60;;;;;;;-4.73;78.46;98900.05;124873;1102;104124;-82
2021/01/31 02:49:03;;;;;;;27.23;14.73;;;;;;;-4.72;77.90;98906.84;124855;1105;104800;-82
2021/01/31 02:51:42;;;;;;;26.97;13.93;;;;;;;-4.72;78.52;98899.20;124849;1103;104210;-82
2021/01/31 02:54:17;;;;;;;28.43;14.07;;;;;;;-4.72;78.57;98894.12;124817;1105;104037;-82
2021/01/31 02:56:54;;;;;;;30.73;15.07;;;;;;;-4.71;78.42;98903.45;124872;1103;104092;-81
2021/01/31 02:59:29;;;;;;;29.97;14.03;;;;;;;-4.69;78.29;98904.31;124855;1105;104132;-81
2021/01/31 03:02:06;;;;;;;26.67;13.77;;;;;;;-4.72;77.73;98897.52;124872;1105;104111;-82
2021/01/31 03:04:38;;;;;;;29.50;14.93;;;;;;;-4.72;78.25;98897.52;124810;1106;104091;-81
2021/01/31 03:07:21;;;;;;;25.93;14.23;;;;;;;-4.75;77.71;98892.41;124832;1105;104127;-81
2021/01/31 03:10:03;;;;;;;31.93;16.10;;;;;;;-4.76;78.02;98892.40;124878;1105;104131;-81
2021/01/31 03:12:36;;;;;;;27.57;13.23;;;;;;;-4.79;78.07;98900.02;124840;1106;104133;-82
2021/01/31 03:15:15;;;;;;;23.63;13.27;;;;;;;-4.86;78.00;98905.03;124823;1105;104123;-81
2021/01/31 03:17:53;;;;;;;31.83;15.70;;;;;;;-4.92;78.00;98899.05;124875;1102;104152;-81
2021/01/31 03:20:31;;;;;;;28.83;14.63;;;;;;;-4.98;78.10;98899.87;124833;1105;103958;-81
2021/01/31 03:22:59;;;;;;;28.30;14.10;;;;;;;-5.03;78.04;98909.13;124879;1105;104099;-82
2021/01/31 03:25:39;;;;;;;27.93;14.58;;;;;;;-5.06;78.35;98898.08;124846;1105;102530;-81
2021/01/31 03:28:06;;;;;;;23.17;14.07;;;;;;;-5.10;78.05;98906.53;124849;1105;104210;-81
2021/01/31 03:30:33;;;;;;;26.83;14.57;;;;;;;-5.14;78.18;98898.03;124813;1105;104255;-81
2021/01/31 03:33:07;;;;;;;25.70;13.93;;;;;;;-5.18;78.38;98906.47;124861;1105;104235;-81
2021/01/31 03:35:43;;;;;;;24.17;13.87;;;;;;;-5.23;78.65;98906.41;124852;1105;104022;-82
2021/01/31 03:38:22;;;;;;;26.65;14.23;;;;;;;-5.28;78.02;98908.06;124807;1106;104127;-81
2021/01/31 03:40:56;;;;;;;24.20;14.30;;;;;;;-5.34;78.36;98902.94;124873;1102;104181;-82
2021/01/31 03:43:23;;;;;;;27.47;14.27;;;;;;;-5.39;77.97;98913.87;124825;1105;103640;-81
2021/01/31 03:45:53;;;;;;;27.30;13.90;;;;;;;-5.44;78.00;98915.52;124825;1102;104120;-82
2021/01/31 03:48:26;;;;;;;24.60;12.73;;;;;;;-5.49;78.41;98926.48;124845;1102;104133;-81
2021/01/31 03:50:54;;;;;;;28.47;13.87;;;;;;;-5.54;77.86;98923.06;124858;1103;104128;-82
2021/01/31 03:53:21;;;;;;;27.25;13.80;;;;;;;-5.61;78.21;98923.80;124877;1103;104216;-83
2021/01/31 03:55:50;;;;;;;28.17;14.53;;;;;;;-5.63;77.78;98925.48;124798;1105;104228;-82
2021/01/31 03:58:19;;;;;;;27.37;13.80;;;;;;;-5.69;78.05;98927.96;124796;1105;104239;-82
2021/01/31 04:00:52;;;;;;;22.47;12.27;;;;;;;-5.73;77.40;98940.62;124831;1105;104200;-82
2021/01/31 04:03:26;;;;;;;24.67;12.67;;;;;;;-5.84;78.04;98943.02;124845;1102;104277;-82
2021/01/31 04:06:01;;;;;;;23.33;12.70;;;;;;;-5.88;77.97;98946.35;124886;1106;104574;-82
2021/01/31 04:08:31;;;;;;;25.00;11.97;;;;;;;-5.93;77.12;98943.77;124841;1102;103125;-82
2021/01/31 04:10:59;;;;;;;22.53;12.17;;;;;;;-5.98;77.76;98945.41;124806;1105;104111;-82
2021/01/31 04:13:30;;;;;;;24.10;12.47;;;;;;;-5.98;77.56;98944.55;124851;1103;104197;-82
2021/01/31 04:15:59;;;;;;;23.30;12.43;;;;;;;-6.07;77.88;98944.45;124842;1103;104255;-81
2021/01/31 04:18:26;;;;;;;25.37;11.60;;;;;;;-6.17;77.68;98949.38;124853;1105;102940;-82
2021/01/31 04:20:54;;;;;;;29.80;14.10;;;;;;;-6.23;77.94;98954.38;124836;1102;104287;-82
2021/01/31 04:23:21;;;;;;;29.23;13.80;;;;;;;-6.31;77.67;98961.02;124820;1106;104235;-82
2021/01/31 04:25:50;;;;;;;29.10;12.60;;;;;;;-6.38;77.36;98963.45;124842;1105;104188;-82
2021/01/31 04:28:24;;;;;;;25.80;12.67;;;;;;;-6.46;77.90;98966.75;124858;1105;104104;-81
2021/01/31 04:30:55;;;;;;;28.37;13.13;;;;;;;-6.49;77.62;98971.74;124832;1105;104270;-82
2021/01/31 04:33:24;;;;;;;30.93;14.40;;;;;;;-6.52;77.96;98965.78;124892;1105;102268;-82
2021/01/31 04:35:52;;;;;;;26.13;13.67;;;;;;;-6.52;78.22;98968.31;124874;1102;103821;-82
2021/01/31 04:38:20;;;;;;;30.13;14.10;;;;;;;-6.52;78.20;98964.09;124878;1105;104101;-82
2021/01/31 04:40:47;;;;;;;25.80;13.57;;;;;;;-6.52;78.02;98966.63;124855;1103;102929;-82
2021/01/31 04:43:18;;;;;;;26.40;13.87;;;;;;;-6.55;77.90;98958.98;124883;1105;102824;-82
2021/01/31 04:45:47;;;;;;;29.87;12.97;;;;;;;-6.57;77.79;98973.33;124868;1105;104281;-82
2021/01/31 04:48:49;;;;;;;26.67;13.17;;;;;;;-6.61;77.99;98976.65;124801;1103;104091;-81
2021/01/31 04:51:29;;;;;;;28.70;12.47;;;;;;;-6.61;77.60;98974.11;124851;1105;104162;-82
2021/01/31 04:54:18;;;;;;;25.97;12.60;;;;;;;-6.62;77.82;98974.09;124831;1106;104019;-81
2021/01/31 04:57:02;;;;;;;31.53;13.13;;;;;;;-6.65;77.73;98974.02;124869;1105;104120;-81
2021/01/31 04:59:37;;;;;;;27.23;11.57;;;;;;;-6.68;77.55;98989.19;124866;1102;104197;-81
2021/01/31 05:02:22;;;;;;;26.87;13.00;;;;;;;-6.70;77.94;98974.80;124866;1105;104134;-81
2021/01/31 05:04:56;;;;;;;27.53;12.87;;;;;;;-6.66;77.65;98988.37;124843;1105;104105;-82
2021/01/31 05:07:33;;;;;;;28.27;13.93;;;;;;;-6.65;77.35;98989.23;124798;1105;104099;-81
2021/01/31 05:10:00;;;;;;;29.07;13.13;;;;;;;-6.61;77.56;98991.02;124880;1103;101635;-82
2021/01/31 05:13:05;;;;;;;25.83;12.90;;;;;;;-6.62;77.49;98987.63;124835;1105;104095;-82
2021/01/31 05:15:47;;;;;;;27.60;12.83;;;;;;;-6.59;77.27;98999.49;124616;1105;104217;-81
2021/01/31 05:18:17;;;;;;;30.17;13.40;;;;;;;-6.61;77.32;98996.08;124652;1109;104098;-82
2021/01/31 05:20:54;;;;;;;36.33;13.43;;;;;;;-6.58;77.40;98996.13;124563;1106;104118;-81
2021/01/31 05:23:22;;;;;;;27.53;13.47;;;;;;;-6.55;77.48;99003.78;124605;1109;104354;-82
2021/01/31 05:25:49;;;;;;;27.67;13.20;;;;;;;-6.56;77.13;99002.92;124580;1108;105063;-82
2021/01/31 05:28:22;;;;;;;29.00;13.03;;;;;;;-6.55;77.19;99006.31;124619;1106;102996;-82
2021/01/31 05:30:49;;;;;;;25.63;12.63;;;;;;;-6.50;77.20;99013.16;124589;1109;105340;-81
2021/01/31 05:33:23;;;;;;;26.37;12.77;;;;;;;-6.46;77.40;99009.87;124574;1108;104300;-81
2021/01/31 05:35:53;;;;;;;27.40;12.93;;;;;;;-6.42;77.14;99010.77;124679;1109;102032;-81
2021/01/31 05:38:53;;;;;;;32.57;14.27;;;;;;;-6.39;77.02;99008.27;124635;1109;104152;-81
2021/01/31 05:41:48;;;;;;;29.83;13.40;;;;;;;-6.40;76.75;99004.88;124270;1109;102332;-82
2021/01/31 05:44:15;;;;;;;25.07;12.10;;;;;;;-6.47;76.65;98999.67;124290;1109;104121;-82
2021/01/31 05:46:47;;;;;;;29.50;13.35;;;;;;;-6.56;76.88;98999.53;124522;1109;104261;-82
2021/01/31 05:49:36;;;;;;;27.43;12.20;;;;;;;-6.64;76.89;99016.30;124306;1109;104293;-81
2021/01/31 05:52:12;;;;;;;27.30;12.40;;;;;;;-6.75;76.67;99014.45;124498;1109;104406;-82
2021/01/31 05:54:40;;;;;;;24.90;12.20;;;;;;;-6.80;76.78;99018.59;124482;1109;104156;-82
2021/01/31 05:57:34;;;;;;;27.50;13.10;;;;;;;-6.75;77.08;99024.59;124555;1109;104207;-81
2021/01/31 06:00:17;;;;;;;23.50;10.93;;;;;;;-6.74;77.17;99025.45;124539;1109;104173;-82
2021/01/31 06:03:05;;;;;;;23.12;11.03;;;;;;;-6.76;76.97;99033.03;124520;1106;104230;-82
2021/01/31 06:05:33;;;;;;;29.50;13.60;;;;;;;-6.78;77.26;99033.83;124559;1109;104146;-82
2021/01/31 06:08:26;;;;;;;24.20;11.80;;;;;;;-6.76;77.35;99040.63;124519;1109;104118;-82
2021/01/31 06:11:04;;;;;;;27.40;13.40;;;;;;;-6.70;77.61;99047.48;124511;1108;105070;-82
2021/01/31 06:13:35;;;;;;;28.47;13.27;;;;;;;-6.61;77.88;99042.58;124509;1109;104225;-82
2021/01/31 06:16:06;;;;;;;26.73;12.50;;;;;;;-6.54;77.87;99038.45;124553;1109;104146;-82
2021/01/31 06:18:44;;;;;;;24.87;12.50;;;;;;;-6.46;77.68;99052.98;124824;1105;104291;-83
2021/01/31 06:21:19;;;;;;;29.33;14.53;;;;;;;-6.39;77.98;99043.78;124841;1102;104130;-82
2021/01/31 06:23:53;;;;;;;28.47;13.70;;;;;;;-6.29;77.76;99035.47;124832;1106;104172;-82
2021/01/31 06:26:30;;;;;;;35.50;15.47;;;;;;;-6.21;77.53;99051.68;124809;1102;104190;-82
2021/01/31 06:29:03;;;;;;;28.50;14.37;;;;;;;-6.13;77.36;99047.56;124837;1102;104073;-82
2021/01/31 06:32:00;;;;;;;30.63;15.90;;;;;;;-6.07;77.26;99051.90;124828;1106;104220;-82
2021/01/31 06:34:28;;;;;;;32.07;15.47;;;;;;;-5.97;77.68;99047.80;124808;1105;104286;-83
2021/01/31 06:37:11;;;;;;;32.25;15.70;;;;;;;-5.97;77.01;99037.64;124869;1102;104140;-83
2021/01/31 06:40:01;;;;;;;30.70;15.30;;;;;;;-6.02;76.65;99034.19;124805;1102;104692;-83
2021/01/31 06:43:08;;;;;;;26.53;13.93;;;;;;;-6.07;76.87;99026.52;124842;1103;104237;-83
2021/01/31 06:46:00;;;;;;;24.30;12.17;;;;;;;-6.06;76.88;99032.45;124839;1105;103025;-82
2021/01/31 06:49:13;;;;;;;27.43;13.87;;;;;;;-6.07;76.68;99035.81;124841;1106;104181;-82
2021/01/31 06:51:55;;;;;;;25.40;13.00;;;;;;;-6.05;76.74;99041.77;124299;1109;104543;-82
2021/01/31 06:54:45;;;;;;;26.40;13.23;;;;;;;-5.90;77.37;99044.53;124312;1112;104268;-82
2021/01/31 06:57:24;;;;;;;26.93;12.43;;;;;;;-5.67;76.56;99058.36;124259;1111;104124;-82
2021/01/31 07:00:19;;;;;;;28.93;13.53;;;;;;;-5.39;77.26;99056.16;124253;1109;104227;-82
2021/01/31 07:03:01;;;;;;;23.63;12.73;;;;;;;-5.06;76.70;99071.81;124250;1111;104270;-82
2021/01/31 07:05:47;;;;;;;23.13;12.47;;;;;;;-4.82;76.18;99078.02;124295;1109;104606;-82
2021/01/31 07:08:39;;;;;;;20.13;11.53;;;;;;;-4.70;75.73;99067.95;124334;1109;104300;-81
2021/01/31 07:11:26;;;;;;;30.37;14.00;;;;;;;-4.50;75.63;99071.53;124302;1110;104315;-82
2021/01/31 07:14:05;;;;;;;23.55;12.82;;;;;;;-4.30;75.14;99072.59;124247;1109;104137;-82
2021/01/31 07:17:02;;;;;;;24.77;12.93;;;;;;;-4.12;75.07;99079.52;124185;1112;102557;-82
2021/01/31 07:19:41;;;;;;;25.03;12.63;;;;;;;-3.88;75.07;99083.94;124251;1109;104187;-82
2021/01/31 07:22:14;;;;;;;23.90;11.80;;;;;;;-3.59;74.06;99093.44;124233;1112;104348;-82
2021/01/31 07:25:09;;;;;;;27.57;13.73;;;;;;;-3.32;74.04;99092.75;124253;1112;104204;-82
2021/01/31 07:27:57;;;;;;;26.27;13.37;;;;;;;-2.92;73.86;99098.88;124254;1112;104302;-82
2021/01/31 07:30:35;;;;;;;22.57;11.70;;;;;;;-2.59;72.67;99098.97;124800;1105;102785;-81
2021/01/31 07:33:41;;;;;;;22.43;12.13;;;;;;;-2.37;72.50;99106.66;124893;1105;104349;-81
2021/01/31 07:36:29;;;;;;;23.10;12.00;;;;;;;-2.07;72.18;99101.59;124865;1102;104117;-81
2021/01/31 07:39:05;;;;;;;25.93;12.57;;;;;;;-1.78;71.36;99106.70;124822;1105;104159;-83
2021/01/31 07:41:33;;;;;;;22.80;11.63;;;;;;;-1.47;71.15;99099.81;124863;1103;104727;-82
2021/01/31 07:44:09;;;;;;;23.67;12.00;;;;;;;-1.18;70.46;99101.45;124768;1105;104143;-82
2021/01/31 07:46:37;;;;;;;24.27;12.40;;;;;;;-0.84;70.09;99102.17;124837;1105;104114;-82
2021/01/31 07:49:06;;;;;;;21.33;11.93;;;;;;;-0.62;69.17;99089.25;124878;1105;104617;-81
2021/01/31 07:51:37;;;;;;;28.07;13.23;;;;;;;-0.42;68.42;99095.95;124850;1105;104136;-81
2021/01/31 07:54:28;;;;;;;23.13;12.60;;;;;;;-0.16;68.29;99093.23;124854;1105;104184;-81
2021/01/31 07:57:13;;;;;;;25.37;14.03;;;;;;;0.11;68.11;99092.15;124812;1105;104166;-81
2021/01/31 07:59:41;;;;;;;25.30;13.80;;;;;;;0.28;66.35;99096.27;124812;1106;103142;-82
2021/01/31 08:02:09;;;;;;;22.47;13.20;;;;;;;0.46;66.07;99096.95;124858;1105;104335;-82
2021/01/31 08:04:36;;;;;;;28.27;14.53;;;;;;;0.58;65.77;99100.25;124781;1106;102939;-82
2021/01/31 08:07:08;;;;;;;26.05;14.05;;;;;;;0.87;66.36;99107.63;124804;1103;104380;-82
2021/01/31 08:09:38;;;;;;;27.83;15.37;;;;;;;1.31;66.54;99102.83;124821;1105;103955;-82
2021/01/31 08:12:15;;;;;;;26.73;14.80;;;;;;;1.75;65.95;99110.76;124800;1106;104108;-82
2021/01/31 08:15:02;;;;;;;23.77;14.60;;;;;;;2.13;64.61;99111.89;124821;1105;104136;-83
2021/01/31 08:17:46;;;;;;;23.60;14.13;;;;;;;2.35;64.43;99108.11;124835;1105;104589;-82
2021/01/31 08:20:19;;;;;;;22.80;13.67;;;;;;;2.62;63.29;99111.91;124814;1102;104727;-82
2021/01/31 08:22:46;;;;;;;22.53;14.07;;;;;;;2.82;63.00;99108.11;124769;1105;104236;-83
2021/01/31 08:25:13;;;;;;;26.87;15.13;;;;;;;3.04;62.28;99117.11;124845;1105;104134;-82
2021/01/31 08:27:40;;;;;;;25.90;15.27;;;;;;;3.23;61.04;99109.85;124849;1106;104259;-82
2021/01/31 08:30:27;;;;;;;24.40;16.32;;;;;;;3.42;61.02;99110.34;124852;1103;102219;-82
2021/01/31 08:32:57;;;;;;;24.12;15.72;;;;;;;3.68;61.09;99112.34;124828;1105;105622;-82
2021/01/31 08:35:43;;;;;;;25.47;17.40;;;;;;;3.94;60.12;99117.73;124809;1102;104261;-82
2021/01/31 08:38:35;;;;;;;64.67;59.40;;;;;;;4.17;59.19;99118.06;124857;1105;104654;-83
2021/01/31 08:41:05;;;;;;;32.17;28.97;;;;;;;4.32;58.14;99127.17;124811;1105;104187;-82
2021/01/31 08:43:43;;;;;;;27.53;20.23;;;;;;;4.42;57.65;99131.20;124810;1102;104095;-82
2021/01/31 08:46:26;;;;;;;26.97;16.33;;;;;;;4.70;58.51;99136.53;124851;1105;104165;-82
2021/01/31 08:48:55;;;;;;;25.73;16.00;;;;;;;4.97;56.98;99132.34;124823;1105;103963;-82
2021/01/31 08:51:44;;;;;;;24.13;16.67;;;;;;;5.19;56.32;99136.92;124844;1105;103944;-83
2021/01/31 08:54:11;;;;;;;25.73;15.00;;;;;;;5.46;56.03;99131.82;124841;1102;104111;-82
2021/01/31 08:56:59;;;;;;;25.20;15.80;;;;;;;5.76;56.39;99140.42;124881;1105;104166;-82
2021/01/31 08:59:33;;;;;;;26.70;15.83;;;;;;;6.01;55.81;99137.95;124854;1103;104211;-81
2021/01/31 09:02:03;;;;;;;22.75;15.30;;;;;;;6.27;53.87;99131.08;124829;1105;104121;-81
2021/01/31 09:04:30;;;;;;;24.33;15.50;;;;;;;6.40;53.79;99141.89;124887;1104;104163;-81
2021/01/31 09:07:02;;;;;;;24.03;16.07;;;;;;;6.50;52.94;99144.14;124860;1103;104162;-81
2021/01/31 09:09:37;;;;;;;23.13;15.80;;;;;;;6.64;52.78;99147.13;124874;1103;104690;-82
2021/01/31 09:12:07;;;;;;;24.23;16.00;;;;;;;6.72;52.46;99144.27;124856;1105;104252;-82
2021/01/31 09:14:37;;;;;;;25.77;16.00;;;;;;;6.88;51.37;99149.77;124838;1105;104191;-82
2021/01/31 09:17:06;;;;;;;27.47;16.30;;;;;;;6.95;50.86;99152.09;124846;1105;104152;-81
2021/01/31 09:19:34;;;;;;;24.73;16.10;;;;;;;7.00;51.16;99144.14;124921;1102;104239;-81
2021/01/31 09:22:22;;;;;;;24.57;15.07;;;;;;;7.03;50.95;99149.24;124887;1105;103057;-82
2021/01/31 09:24:56;;;;;;;24.23;15.43;;;;;;;6.98;50.29;99151.12;124835;1103;104190;-82
2021/01/31 09:27:26;;;;;;;23.70;15.40;;;;;;;7.02;49.77;99157.08;124791;1105;104139;-81
2021/01/31 09:30:20;;;;;;;22.93;14.87;;;;;;;6.93;50.28;99158.22;124830;1105;104126;-81
2021/01/31 09:32:55;;;;;;;22.70;14.30;;;;;;;7.00;49.45;99159.69;124829;1102;103980;-82
2021/01/31 09:35:35;;;;;;;23.17;14.27;;;;;;;7.04;50.49;99163.90;124803;1105;104129;-82
2021/01/31 09:38:31;;;;;;;22.20;14.47;;;;;;;7.27;49.79;99168.26;124792;1105;104197;-82
2021/01/31 09:41:00;;;;;;;22.57;14.70;;;;;;;7.35;48.26;99176.59;124828;1102;104130;-82
2021/01/31 09:43:30;;;;;;;20.73;13.60;;;;;;;7.34;48.16;99169.72;124849;1103;104309;-83
2021/01/31 09:46:01;;;;;;;21.80;14.70;;;;;;;7.34;47.80;99176.66;124876;1105;102389;-84
2021/01/31 09:48:32;;;;;;;19.80;12.93;;;;;;;7.43;48.00;99168.56;124860;1102;104108;-84
2021/01/31 09:51:02;;;;;;;23.97;14.47;;;;;;;7.60;48.55;99166.19;124830;1106;104243;-84
2021/01/31 09:53:39;;;;;;;21.67;13.57;;;;;;;7.77;47.86;99165.56;124805;1105;104172;-84
2021/01/31 09:56:10;;;;;;;21.00;14.35;;;;;;;7.76;47.48;99153.48;124866;1105;104153;-84
2021/01/31 09:58:46;;;;;;;20.93;13.73;;;;;;;7.69;47.68;99160.64;124863;1103;104259;-84
2021/01/31 10:01:24;;;;;;;22.20;14.77;;;;;;;7.71;47.42;99164.02;124890;1102;101911;-83
2021/01/31 10:04:06;;;;;;;22.63;14.43;;;;;;;7.71;47.16;99156.23;124902;1105;103133;-85
2021/01/31 10:06:45;;;;;;;27.03;16.00;;;;;;;7.58;47.12;99162.81;124808;1102;103938;-84
2021/01/31 10:09:12;;;;;;;23.23;15.13;;;;;;;7.66;47.67;99171.14;124857;1105;102808;-84
2021/01/31 10:11:47;;;;;;;22.30;15.10;;;;;;;7.53;46.84;99172.48;124891;1105;104217;-84
2021/01/31 10:14:47;;;;;;;24.17;15.33;;;;;;;7.41;46.85;99173.80;124862;1105;104187;-84
2021/01/31 10:17:39;;;;;;;24.40;15.23;;;;;;;7.30;46.52;99182.86;124877;1105;105737;-84
2021/01/31 10:20:26;;;;;;;23.93;15.40;;;;;;;6.92;46.57;99183.30;124852;1105;102966;-84
2021/01/31 10:23:18;;;;;;;24.20;15.28;;;;;;;6.82;47.31;99186.24;124874;1103;104262;-85
2021/01/31 10:26:02;;;;;;;23.50;14.70;;;;;;;6.79;46.96;99186.35;124855;1103;104233;-84
2021/01/31 10:28:36;;;;;;;24.90;15.70;;;;;;;6.67;47.22;99177.27;124870;1105;104252;-84
2021/01/31 10:31:04;;;;;;;25.27;14.60;;;;;;;6.60;47.85;99180.94;124883;1105;104287;-83
2021/01/31 10:33:46;;;;;;;24.87;15.93;;;;;;;6.59;47.95;99185.27;124866;1105;104137;-84
2021/01/31 10:36:24;;;;;;;29.47;17.93;;;;;;;6.44;47.22;99180.59;124902;1105;104246;-83
2021/01/31 10:39:19;;;;;;;25.70;16.20;;;;;;;6.29;47.48;99178.52;124900;1103;104124;-83
2021/01/31 10:41:46;;;;;;;24.23;15.27;;;;;;;6.27;47.39;99182.86;124825;1103;102274;-83
2021/01/31 10:44:23;;;;;;;23.47;14.90;;;;;;;6.22;47.64;99177.84;124841;1102;104191;-83
2021/01/31 10:46:52;;;;;;;21.95;14.15;;;;;;;6.11;46.74;99181.68;124841;1105;104589;-82
2021/01/31 10:49:20;;;;;;;23.33;14.47;;;;;;;5.95;47.05;99176.97;124929;1105;104214;-83
2021/01/31 10:51:47;;;;;;;25.93;15.40;;;;;;;5.82;46.67;99175.60;124897;1105;104239;-83
2021/01/31 10:54:17;;;;;;;24.67;14.80;;;;;;;5.69;47.70;99189.78;124837;1106;104223;-84
2021/01/31 10:56:44;;;;;;;24.27;15.07;;;;;;;5.58;46.84;99194.44;124911;1105;104232;-83
2021/01/31 10:59:11;;;;;;;25.48;15.70;;;;;;;5.41;47.56;99188.00;124792;1102;104268;-83
2021/01/31 11:01:47;;;;;;;24.75;15.60;;;;;;;5.27;46.45;99194.44;124877;1105;102623;-83
2021/01/31 11:04:16;;;;;;;24.83;15.57;;;;;;;5.18;47.26;99195.52;124901;1105;104281;-84
2021/01/31 11:06:44;;;;;;;23.70;14.40;;;;;;;4.98;48.29;99192.63;124963;1105;102247;-83
2021/01/31 11:09:14;;;;;;;23.20;15.03;;;;;;;4.89;48.15;99195.46;124840;1106;104394;-84
2021/01/31 11:11:42;;;;;;;25.83;15.13;;;;;;;4.73;48.12;99190.69;124826;1105;104582;-84
2021/01/31 11:14:09;;;;;;;28.27;15.00;;;;;;;4.55;48.40;99198.89;124879;1103;104265;-84
2021/01/31 11:16:37;;;;;;;24.27;14.37;;;;;;;4.53;48.31;99191.19;124878;1105;104236;-84
2021/01/31 11:19:04;;;;;;;23.60;14.23;;;;;;;4.40;48.11;99188.92;124847;1103;101667;-83
2021/01/31 11:21:31;;;;;;;22.00;14.33;;;;;;;4.34;47.77;99189.08;124835;1103;104583;-83
2021/01/31 11:23:58;;;;;;;23.13;14.40;;;;;;;4.10;47.72;99183.59;124855;1103;104615;-83
2021/01/31 11:26:26;;;;;;;21.52;13.60;;;;;;;4.02;49.09;99184.66;124832;1103;104181;-83
2021/01/31 11:28:53;;;;;;;25.10;14.67;;;;;;;4.00;48.52;99182.12;124857;1102;104187;-84
2021/01/31 11:31:21;;;;;;;25.33;14.20;;;;;;;4.00;49.05;99171.80;124875;1105;104729;-83
2021/01/31 11:33:50;;;;;;;23.37;13.67;;;;;;;3.90;48.32;99175.45;124864;1106;104107;-83
2021/01/31 11:36:18;;;;;;;22.00;13.57;;;;;;;3.77;48.87;99172.31;124772;1105;104348;-82
2021/01/31 11:38:46;;;;;;;21.10;13.30;;;;;;;3.69;48.57;99176.77;124853;1105;104155;-82
2021/01/31 11:41:14;;;;;;;21.77;13.00;;;;;;;3.51;48.88;99183.16;124892;1105;104117;-83